| time (UTC) | temp F | wind direction | speed MPH | gust MPH | rain 1hr in | rain 24hr in | rain mn in | humidity % | barometer mb |
| 20260506170038 | 60 | 315 | 1.0 | 4.0 | 0.00 | 1.14 | 0.64 | 61 | 1013.9 |
| 20260506165018 | 59 | 338 | 2.0 | 8.0 | 0.00 | 1.14 | 0.64 | 64 | 1014.0 |
| 20260506164018 | 60 | 315 | 1.0 | 3.0 | 0.00 | 1.14 | 0.64 | 66 | 1013.9 |
| 20260506163039 | 58 | 315 | 1.0 | 5.0 | 0.00 | 1.14 | 0.64 | 66 | 1014.2 |
| 20260506162018 | 58 | 0 | 1.0 | 6.0 | 0.00 | 1.14 | 0.64 | 70 | 1014.1 |
| 20260506161019 | 57 | 315 | 2.0 | 6.0 | 0.00 | 1.14 | 0.64 | 68 | 1014.4 |
| 20260506160018 | 57 | 338 | 2.0 | 6.0 | 0.00 | 1.14 | 0.64 | 70 | 1014.0 |
| 20260506155039 | 57 | 0.0 | 1.0 | 0.00 | 1.14 | 0.64 | 75 | 1013.9 | |
| 20260506154039 | 55 | 338 | 1.0 | 4.0 | 0.00 | 1.14 | 0.64 | 73 | 1013.7 |
| 20260506153019 | 55 | 338 | 1.0 | 6.0 | 0.00 | 1.14 | 0.64 | 76 | 1013.4 |
| 20260506152018 | 55 | 338 | 1.0 | 4.0 | 0.00 | 1.14 | 0.64 | 76 | 1013.7 |
| 20260506151018 | 55 | 23 | 1.0 | 3.0 | 0.00 | 1.14 | 0.64 | 76 | 1013.5 |
| 20260506150019 | 54 | 0.0 | 3.0 | 0.00 | 1.14 | 0.64 | 80 | 1013.5 | |
| 20260506145039 | 53 | 338 | 1.0 | 4.0 | 0.00 | 1.14 | 0.64 | 78 | 1013.4 |
| 20260506144018 | 52 | 0.0 | 2.0 | 0.00 | 1.14 | 0.64 | 82 | 1013.4 | |
| 20260506143019 | 51 | 315 | 1.0 | 5.0 | 0.00 | 1.14 | 0.64 | 82 | 1013.3 |
| 20260506142019 | 50 | 338 | 1.0 | 3.0 | 0.00 | 1.14 | 0.64 | 84 | 1013.0 |
| 20260506141019 | 50 | 338 | 1.0 | 4.0 | 0.00 | 1.14 | 0.64 | 86 | 1012.5 |
| 20260506140019 | 49 | 338 | 1.0 | 4.0 | 0.00 | 1.14 | 0.64 | 87 | 1012.7 |
| 20260506135038 | 48 | 315 | 1.0 | 4.0 | 0.00 | 1.14 | 0.64 | 88 | 1012.5 |
| 20260506134038 | 48 | 0.0 | 3.0 | 0.00 | 1.14 | 0.64 | 90 | 1012.4 | |
| 20260506133019 | 47 | 0.0 | 2.0 | 0.00 | 1.14 | 0.64 | 90 | 1012.5 | |
| 20260506132018 | 47 | 338 | 1.0 | 2.0 | 0.00 | 1.14 | 0.64 | 91 | 1012.2 |
| 20260506131019 | 47 | 0.0 | 2.0 | 0.00 | 1.14 | 0.64 | 92 | 1012.1 | |
| 20260506130039 | 47 | 0.0 | 3.0 | 0.00 | 1.14 | 0.64 | 93 | 1012.0 | |
| 20260506125018 | 47 | 0.0 | 2.0 | 0.00 | 1.14 | 0.64 | 94 | 1012.0 | |
| 20260506124038 | 46 | 0.0 | 2.0 | 0.00 | 1.14 | 0.64 | 94 | 1011.9 | |
| 20260506123019 | 46 | 0.0 | 2.0 | 0.00 | 1.14 | 0.64 | 95 | 1012.2 | |
| 20260506122019 | 46 | 315 | 1.0 | 3.0 | 0.00 | 1.14 | 0.64 | 95 | 1011.8 |
| 20260506121018 | 46 | 0.0 | 2.0 | 0.00 | 1.14 | 0.64 | 95 | 1011.7 | |
| 20260506120018 | 45 | 0.0 | 1.0 | 0.00 | 1.14 | 0.64 | 95 | 1012.0 | |
| 20260506115018 | 45 | 0.0 | 1.0 | 0.00 | 1.14 | 0.64 | 95 | 1011.7 | |
| 20260506114019 | 45 | 0.0 | 3.0 | 0.00 | 1.14 | 0.64 | 95 | 1011.4 | |
| 20260506113018 | 45 | 0.0 | 1.0 | 0.00 | 1.14 | 0.64 | 95 | 1011.3 | |
| 20260506112019 | 45 | 0.0 | 0.0 | 0.00 | 1.14 | 0.64 | 95 | 1011.0 | |
| 20260506111018 | 45 | 0.0 | 1.0 | 0.00 | 1.14 | 0.64 | 95 | 1010.7 | |
| 20260506110019 | 46 | 0.0 | 1.0 | 0.00 | 1.14 | 0.64 | 95 | 1010.4 | |
| 20260506105038 | 46 | 315 | 1.0 | 5.0 | 0.00 | 1.14 | 0.64 | 95 | 1010.8 |
| 20260506104018 | 46 | 0.0 | 1.0 | 0.00 | 1.14 | 0.64 | 97 | 1010.2 | |
| 20260506103019 | 47 | 338 | 1.0 | 4.0 | 0.00 | 1.14 | 0.64 | 97 | 1010.0 |
| 20260506102019 | 47 | 0.0 | 2.0 | 0.00 | 1.14 | 0.64 | 98 | 1009.9 | |
| 20260506101019 | 48 | 0.0 | 1.0 | 0.00 | 1.14 | 0.64 | 98 | 1009.3 | |
| 20260506100019 | 48 | 0.0 | 1.0 | 0.00 | 1.14 | 0.64 | 97 | 1009.6 | |
| 20260506095039 | 48 | 0.0 | 1.0 | 0.00 | 1.14 | 0.64 | 97 | 1009.1 | |
| 20260506094019 | 48 | 0.0 | 3.0 | 0.00 | 1.14 | 0.64 | 97 | 1009.1 | |
| 20260506093018 | 48 | 0.0 | 2.0 | 0.00 | 1.14 | 0.64 | 97 | 1008.9 | |
| 20260506092018 | 48 | 0.0 | 4.0 | 0.00 | 1.14 | 0.64 | 97 | 1009.0 | |
| 20260506091018 | 48 | 0.0 | 2.0 | 0.00 | 1.14 | 0.64 | 97 | 1009.0 | |
| 20260506090018 | 48 | 338 | 1.0 | 4.0 | 0.00 | 1.14 | 0.64 | 97 | 1008.4 |
| 20260506085018 | 48 | 0.0 | 4.0 | 0.00 | 1.14 | 0.64 | 97 | 1009.0 | |
| 20260506084019 | 48 | 338 | 1.0 | 7.0 | 0.01 | 1.14 | 0.64 | 97 | 1009.0 |
| 20260506083018 | 48 | 338 | 2.0 | 6.0 | 0.02 | 1.14 | 0.64 | 97 | 1008.8 |
| 20260506082019 | 49 | 338 | 1.0 | 5.0 | 0.03 | 1.14 | 0.64 | 97 | 1008.2 |
| 20260506081039 | 49 | 338 | 2.0 | 7.0 | 0.04 | 1.14 | 0.64 | 98 | 1007.9 |
| 20260506073018 | 50 | 338 | 1.0 | 3.0 | 0.07 | 1.12 | 0.62 | 98 | 1007.2 |
| 20260506072018 | 51 | 338 | 1.0 | 3.0 | 0.07 | 1.11 | 0.61 | 98 | 1006.9 |
| 20260506071019 | 51 | 315 | 1.0 | 3.0 | 0.07 | 1.10 | 0.60 | 98 | 1007.1 |
| 20260506062019 | 52 | 338 | 1.0 | 3.0 | 0.09 | 1.04 | 0.54 | 98 | 1007.0 |
| 20260506061018 | 52 | 338 | 1.0 | 3.0 | 0.12 | 1.03 | 0.53 | 98 | 1006.6 |
| 20260506051019 | 58 | 0.0 | 2.0 | 0.35 | 0.91 | 0.41 | 98 | 1006.9 | |
| 20260506045038 | 58 | 0.0 | 0.0 | 0.34 | 0.84 | 0.34 | 98 | 1007.0 | |
| 20260506044038 | 59 | 0.0 | 1.0 | 0.20 | 0.69 | 0.19 | 98 | 1007.1 | |
| 20260506043018 | 59 | 0.0 | 2.0 | 0.17 | 0.65 | 0.15 | 98 | 1006.7 | |
| 20260506042019 | 59 | 0.0 | 0.0 | 0.15 | 0.63 | 0.13 | 98 | 1006.6 | |
| 20260506041019 | 59 | 0.0 | 1.0 | 0.12 | 0.56 | 0.06 | 98 | 1006.8 | |
| 20260506040018 | 59 | 0.0 | 2.0 | 0.07 | 0.50 | 0.50 | 98 | 1006.6 | |
| 20260506035038 | 59 | 0.0 | 1.0 | 0.07 | 0.50 | 0.50 | 98 | 1006.8 | |
| 20260506034039 | 59 | 0.0 | 3.0 | 0.07 | 0.49 | 0.49 | 98 | 1006.9 | |
| 20260506033019 | 59 | 0.0 | 2.0 | 0.06 | 0.48 | 0.48 | 98 | 1007.1 | |
| 20260506032018 | 59 | 225 | 1.0 | 3.0 | 0.06 | 0.48 | 0.48 | 98 | 1007.2 |
| 20260506031038 | 60 | 0.0 | 2.0 | 0.02 | 0.44 | 0.44 | 98 | 1007.4 | |
| 20260506030019 | 60 | 0.0 | 1.0 | 0.01 | 0.43 | 0.43 | 98 | 1007.5 | |
| 20260506025019 | 60 | 225 | 1.0 | 4.0 | 0.01 | 0.43 | 0.43 | 98 | 1007.6 |
| 20260506024018 | 60 | 248 | 1.0 | 5.0 | 0.00 | 0.42 | 0.42 | 98 | 1007.7 |
| 20260506023038 | 60 | 0.0 | 1.0 | 0.00 | 0.42 | 0.42 | 98 | 1007.8 | |
| 20260506022019 | 60 | 0.0 | 0.0 | 0.00 | 0.42 | 0.42 | 98 | 1007.6 | |
| 20260506021019 | 60 | 0.0 | 1.0 | 0.00 | 0.42 | 0.42 | 98 | 1007.5 | |
| 20260506020019 | 59 | 0.0 | 0.0 | 0.00 | 0.42 | 0.42 | 98 | 1007.3 | |
| 20260506015019 | 59 | 0.0 | 0.0 | 0.00 | 0.42 | 0.42 | 98 | 1007.2 | |
| 20260506014018 | 59 | 0.0 | 0.0 | 0.00 | 0.42 | 0.42 | 98 | 1007.1 | |
| 20260506013019 | 59 | 0.0 | 0.0 | 0.00 | 0.42 | 0.42 | 98 | 1006.8 | |
| 20260506012039 | 59 | 0.0 | 0.0 | 0.01 | 0.42 | 0.42 | 98 | 1006.7 | |
| 20260506011019 | 59 | 0.0 | 0.0 | 0.01 | 0.42 | 0.42 | 98 | 1006.7 | |
| 20260506010019 | 59 | 0.0 | 0.0 | 0.01 | 0.42 | 0.42 | 97 | 1006.6 | |
| 20260506005019 | 59 | 0.0 | 0.0 | 0.01 | 0.42 | 0.42 | 97 | 1006.4 | |
| 20260506004018 | 60 | 0.0 | 0.0 | 0.01 | 0.42 | 0.42 | 97 | 1006.6 | |
| 20260506003018 | 60 | 0.0 | 0.0 | 0.02 | 0.42 | 0.42 | 97 | 1006.7 | |
| 20260506002018 | 60 | 0.0 | 0.0 | 0.02 | 0.41 | 0.41 | 97 | 1007.0 | |
| 20260506001018 | 60 | 0.0 | 0.0 | 0.04 | 0.41 | 0.41 | 97 | 1006.8 | |
| 20260506000019 | 60 | 0.0 | 0.0 | 0.07 | 0.41 | 0.41 | 97 | 1006.8 | |
| 20260505235019 | 60 | 0.0 | 0.0 | 0.10 | 0.41 | 0.41 | 97 | 1006.8 | |
| 20260505234018 | 61 | 0.0 | 0.0 | 0.11 | 0.41 | 0.41 | 97 | 1006.8 | |
| 20260505233039 | 60 | 0.0 | 0.0 | 0.12 | 0.40 | 0.40 | 97 | 1007.0 | |
| 20260505232019 | 61 | 0.0 | 0.0 | 0.14 | 0.39 | 0.39 | 97 | 1007.2 | |
| 20260505231018 | 61 | 0.0 | 0.0 | 0.12 | 0.37 | 0.37 | 96 | 1007.3 | |
| 20260505230019 | 61 | 0.0 | 0.0 | 0.09 | 0.34 | 0.34 | 96 | 1007.1 | |
| 20260505225039 | 62 | 0.0 | 0.0 | 0.06 | 0.31 | 0.31 | 97 | 1007.6 | |
| 20260505224019 | 62 | 0.0 | 0.0 | 0.05 | 0.30 | 0.30 | 97 | 1007.8 | |
| 20260505223019 | 62 | 0.0 | 1.0 | 0.03 | 0.28 | 0.28 | 97 | 1007.6 | |
| 20260505222018 | 63 | 0.0 | 0.0 | 0.00 | 0.25 | 0.25 | 97 | 1007.5 | |
| 20260505221019 | 63 | 0.0 | 0.0 | 0.00 | 0.25 | 0.25 | 97 | 1007.3 | |
| 20260505220019 | 62 | 0.0 | 0.0 | 0.00 | 0.25 | 0.25 | 97 | 1007.3 | |
| 20260505215019 | 62 | 0.0 | 0.0 | 0.00 | 0.25 | 0.25 | 97 | 1007.4 | |
| 20260505214019 | 62 | 0.0 | 0.0 | 0.00 | 0.25 | 0.25 | 97 | 1007.5 | |
| 20260505213019 | 62 | 0.0 | 0.0 | 0.00 | 0.25 | 0.25 | 97 | 1007.8 | |
| 20260505212039 | 63 | 0.0 | 0.0 | 0.00 | 0.25 | 0.25 | 96 | 1007.8 | |
| 20260505211018 | 63 | 0.0 | 0.0 | 0.00 | 0.25 | 0.25 | 96 | 1008.0 | |
| 20260505210019 | 63 | 0.0 | 0.0 | 0.01 | 0.25 | 0.25 | 96 | 1008.2 | |
| 20260505205039 | 63 | 0.0 | 0.0 | 0.01 | 0.25 | 0.25 | 96 | 1008.3 | |
| 20260505204039 | 62 | 0.0 | 0.0 | 0.03 | 0.25 | 0.25 | 96 | 1008.4 | |
| 20260505203643 | 62 | 0.0 | 0.0 | 0.04 | 0.25 | 0.25 | 96 | 1008.5 |